Time;durP1;ratioP1;P1;durP2;ratioP2;P2;SDS_P1;SDS_P2;PMS_P1;PMS_P2;Temp;Humidity;BMP_temperature;BMP_pressure;BME280_temperature;BME280_humidity;BME280_pressure;Samples;Min_cycle;Max_cycle;Signal;HPM_P1;HPM_P2
2022/05/23 00:00:51;;;;;;;2.30;0.70;;;14.30;99.90;;;;;;5100029;28;20062;-77
2022/05/23 00:03:17;;;;;;;2.17;0.90;;;14.30;99.90;;;;;;5100430;28;20031;-77
2022/05/23 00:05:43;;;;;;;2.35;0.80;;;14.30;99.90;;;;;;5109702;28;20047;-72
2022/05/23 00:08:10;;;;;;;1.52;0.60;;;14.20;99.90;;;;;;5111694;28;20579;-73
2022/05/23 00:10:36;;;;;;;2.05;0.70;;;14.20;99.90;;;;;;5111665;28;20371;-72
2022/05/23 00:13:02;;;;;;;2.20;0.80;;;14.10;99.90;;;;;;5112007;28;20051;-72
2022/05/23 00:15:28;;;;;;;;;;;14.10;99.90;;;;;;5112239;28;20088;-72
2022/05/23 00:17:55;;;;;;;1.88;0.90;;;14.00;99.90;;;;;;5093253;28;19916;-72
2022/05/23 00:20:23;;;;;;;2.42;1.10;;;14.00;99.90;;;;;;5091309;28;20051;-72
2022/05/23 00:22:49;;;;;;;2.30;1.02;;;14.00;99.90;;;;;;5091119;28;20052;-72
2022/05/23 00:25:15;;;;;;;1.75;0.80;;;14.00;99.90;;;;;;5090335;28;20043;-72
2022/05/23 00:27:42;;;;;;;1.85;0.60;;;13.90;99.90;;;;;;5097651;28;20039;-72
2022/05/23 00:30:13;;;;;;;1.63;0.73;;;13.80;99.90;;;;;;5094309;28;20040;-72
2022/05/23 00:35:24;;;;;;;3.45;1.20;;;13.70;99.90;;;;;;5112591;28;20050;-72
2022/05/23 00:37:53;;;;;;;;;;;13.70;99.90;;;;;;5108819;28;20101;-72
2022/05/23 00:40:22;;;;;;;2.80;1.20;;;13.70;99.90;;;;;;5094466;28;19938;-72
2022/05/23 00:45:34;;;;;;;2.13;0.90;;;13.70;99.90;;;;;;5090160;28;20135;-73
2022/05/23 00:48:00;;;;;;;2.70;1.00;;;13.60;99.90;;;;;;5073917;28;20338;-72
2022/05/23 00:50:26;;;;;;;2.30;1.05;;;13.60;99.90;;;;;;5072881;28;20449;-73
2022/05/23 00:52:54;;;;;;;4.35;1.35;;;13.60;99.90;;;;;;5090838;28;20044;-72
2022/05/23 00:55:32;;;;;;;3.25;1.33;;;13.50;99.90;;;;;;5076730;28;20040;-73
2022/05/23 00:58:04;;;;;;;2.55;1.05;;;13.50;99.90;;;;;;5096435;28;20110;-73
2022/05/23 01:00:30;;;;;;;1.38;0.95;;;13.50;99.90;;;;;;5094447;28;20036;-72
2022/05/23 01:03:01;;;;;;;2.42;1.00;;;13.50;99.90;;;;;;5093903;28;20503;-72
2022/05/23 01:05:27;;;;;;;3.03;1.08;;;13.40;99.90;;;;;;5090134;28;20447;-72
2022/05/23 01:07:53;;;;;;;5.28;1.55;;;13.40;99.90;;;;;;5073052;28;20201;-73
2022/05/23 01:10:19;;;;;;;2.08;1.27;;;13.40;99.90;;;;;;5090123;28;20129;-73
2022/05/23 01:12:45;;;;;;;2.67;1.23;;;13.30;99.90;;;;;;5090034;28;20040;-73
2022/05/23 01:15:21;;;;;;;3.03;1.60;;;13.30;99.90;;;;;;5089902;28;20236;-72
2022/05/23 01:17:46;;;;;;;4.35;1.77;;;13.30;99.90;;;;;;5089267;28;20086;-73
2022/05/23 01:20:13;;;;;;;4.97;2.00;;;13.30;99.90;;;;;;5100362;28;20086;-73
2022/05/23 01:23:11;;;;;;;5.10;1.60;;;13.30;99.90;;;;;;5110693;28;20054;-73
2022/05/23 01:25:40;;;;;;;3.65;1.80;;;13.20;99.90;;;;;;5104020;28;20043;-73
2022/05/23 01:28:06;;;;;;;3.95;1.70;;;13.10;99.90;;;;;;5092659;28;20097;-73
2022/05/23 01:30:36;;;;;;;3.83;1.83;;;13.10;99.90;;;;;;5074188;28;20462;-74
2022/05/23 01:33:03;;;;;;;3.58;1.67;;;13.10;99.90;;;;;;5088752;28;20147;-74
2022/05/23 01:35:29;;;;;;;3.63;1.58;;;13.00;99.90;;;;;;5089781;28;20527;-73
2022/05/23 01:37:55;;;;;;;;;;;13.00;99.90;;;;;;5090308;28;20118;-72
2022/05/23 01:40:21;;;;;;;3.63;1.70;;;13.00;99.90;;;;;;5089538;28;20011;-72
2022/05/23 01:42:47;;;;;;;3.47;1.70;;;12.90;99.90;;;;;;5089745;28;20047;-72
2022/05/23 01:45:18;;;;;;;2.63;1.48;;;12.90;99.90;;;;;;5072712;28;20040;-72
2022/05/23 01:47:44;;;;;;;3.85;1.75;;;12.90;99.90;;;;;;5089598;28;20051;-72
2022/05/23 01:50:10;;;;;;;;;;;12.90;99.90;;;;;;5090656;28;20044;-73
2022/05/23 01:52:37;;;;;;;3.33;1.90;;;12.90;99.90;;;;;;5089703;28;19916;-73
2022/05/23 01:55:03;;;;;;;2.58;1.58;;;12.90;99.90;;;;;;5089803;28;20048;-73
2022/05/23 01:57:31;;;;;;;3.78;1.95;;;12.90;99.90;;;;;;5089532;28;20380;-73
2022/05/23 02:02:44;;;;;;;4.65;2.20;;;12.90;99.90;;;;;;5092608;28;20064;-72
2022/05/23 02:05:10;;;;;;;2.63;1.80;;;12.90;99.90;;;;;;5094250;28;20044;-73
2022/05/23 02:07:36;;;;;;;2.25;1.67;;;13.00;99.90;;;;;;5092436;28;20555;-73
2022/05/23 02:10:03;;;;;;;2.60;1.60;;;13.00;99.90;;;;;;5100579;28;20086;-73
2022/05/23 02:12:28;;;;;;;2.97;1.58;;;13.00;99.90;;;;;;5096884;28;20144;-73
2022/05/23 02:14:54;;;;;;;2.67;1.40;;;13.00;99.90;;;;;;5113751;28;20097;-73
2022/05/23 02:17:20;;;;;;;2.30;1.40;;;13.00;99.90;;;;;;5093876;28;20523;-73
2022/05/23 02:19:46;;;;;;;2.80;1.67;;;13.00;99.90;;;;;;5093362;28;20140;-73
2022/05/23 02:22:12;;;;;;;2.95;1.27;;;13.00;99.90;;;;;;5093420;28;20213;-73
2022/05/23 02:24:37;;;;;;;2.60;1.50;;;13.10;99.90;;;;;;5093041;28;20048;-72
2022/05/23 02:27:03;;;;;;;2.50;1.58;;;13.00;99.90;;;;;;5093382;28;20040;-73
2022/05/23 02:29:29;;;;;;;3.22;1.65;;;13.10;99.90;;;;;;5093071;28;20036;-73
2022/05/23 02:31:55;;;;;;;2.90;1.58;;;13.00;99.90;;;;;;5093253;28;20119;-72
2022/05/23 02:34:21;;;;;;;2.83;1.50;;;13.00;99.90;;;;;;5093130;28;20048;-73
2022/05/23 02:36:48;;;;;;;3.63;1.80;;;13.00;99.90;;;;;;5094564;28;20069;-73
2022/05/23 02:39:14;;;;;;;3.47;1.42;;;13.00;99.90;;;;;;5092950;28;20040;-72
2022/05/23 02:41:41;;;;;;;3.67;1.90;;;13.00;99.90;;;;;;5093064;28;20043;-73
2022/05/23 02:44:06;;;;;;;;;;;13.00;99.90;;;;;;5093122;28;20048;-73
2022/05/23 02:46:32;;;;;;;2.13;1.42;;;13.00;99.90;;;;;;5092711;28;19924;-73
2022/05/23 02:48:59;;;;;;;3.60;1.50;;;12.90;99.90;;;;;;5092799;28;20046;-73
2022/05/23 02:51:25;;;;;;;3.67;2.00;;;12.90;99.90;;;;;;5075780;28;20082;-73
2022/05/23 02:53:51;;;;;;;2.75;1.70;;;12.90;99.90;;;;;;5092898;28;20093;-73
2022/05/23 02:56:17;;;;;;;5.95;2.25;;;12.90;99.90;;;;;;5092805;28;20035;-73
2022/05/23 02:58:43;;;;;;;3.03;1.90;;;12.90;99.90;;;;;;5092675;28;20050;-73
2022/05/23 03:01:09;;;;;;;4.07;2.10;;;12.90;99.90;;;;;;5110816;28;20123;-73
2022/05/23 03:03:36;;;;;;;3.28;2.20;;;12.90;99.90;;;;;;5112819;28;20052;-72
2022/05/23 03:06:03;;;;;;;3.30;2.45;;;12.90;99.90;;;;;;5112807;28;20159;-73
2022/05/23 03:08:29;;;;;;;4.07;2.10;;;12.90;99.90;;;;;;5111606;28;20055;-73
2022/05/23 03:10:59;;;;;;;3.30;2.30;;;12.90;99.90;;;;;;5111659;28;20043;-73
2022/05/23 03:13:25;;;;;;;5.22;2.58;;;12.90;99.90;;;;;;5111140;28;20043;-73
2022/05/23 03:15:51;;;;;;;3.95;2.47;;;12.90;99.90;;;;;;5111277;28;20042;-73
2022/05/23 03:18:17;;;;;;;5.60;2.38;;;12.90;99.90;;;;;;5111544;28;20040;-72
2022/05/23 03:20:43;;;;;;;4.10;2.08;;;12.90;99.90;;;;;;5094397;28;20224;-72
2022/05/23 03:29:00;;;;;;;3.88;2.42;;;12.90;99.90;;;;;;5060568;28;20107;-73
2022/05/23 03:31:27;;;;;;;3.40;2.10;;;12.80;99.90;;;;;;5094330;28;20035;-72
2022/05/23 03:33:53;;;;;;;2.92;1.90;;;12.80;99.90;;;;;;5094437;28;20055;-72
2022/05/23 03:36:20;;;;;;;2.60;2.20;;;12.80;99.90;;;;;;5111316;28;20047;-73
2022/05/23 03:38:46;;;;;;;3.40;2.20;;;12.80;99.90;;;;;;5111423;28;20040;-73
2022/05/23 03:41:12;;;;;;;4.03;2.22;;;12.80;99.90;;;;;;5111075;28;20868;-73
2022/05/23 03:43:38;;;;;;;2.85;2.10;;;12.80;99.90;;;;;;5094250;28;20207;-73
2022/05/23 03:46:09;;;;;;;3.47;2.30;;;12.80;99.90;;;;;;5101622;28;20384;-73
2022/05/23 03:48:36;;;;;;;4.78;2.28;;;12.80;99.90;;;;;;5091910;28;20048;-73
2022/05/23 03:51:02;;;;;;;4.57;2.75;;;12.90;99.90;;;;;;5106232;28;20046;-73
2022/05/23 03:53:29;;;;;;;3.20;2.08;;;12.90;99.90;;;;;;5111104;28;20778;-73
2022/05/23 03:55:55;;;;;;;3.40;2.20;;;12.90;99.90;;;;;;5094320;28;20043;-73
2022/05/23 03:58:21;;;;;;;2.78;2.10;;;12.90;99.90;;;;;;5093985;28;20039;-73
2022/05/23 04:00:50;;;;;;;4.30;1.98;;;13.00;99.90;;;;;;5109255;28;20031;-73
2022/05/23 04:03:17;;;;;;;3.45;2.05;;;13.00;99.90;;;;;;5112076;28;20413;-72
2022/05/23 04:05:43;;;;;;;3.42;1.95;;;13.00;99.90;;;;;;5108958;28;20510;-74
2022/05/23 04:08:09;;;;;;;3.13;1.70;;;13.00;99.90;;;;;;5056511;28;1080619;-73
2022/05/23 04:10:35;;;;;;;3.35;1.73;;;13.00;99.90;;;;;;5111604;28;20052;-73
2022/05/23 04:13:02;;;;;;;2.58;1.30;;;13.00;99.90;;;;;;5111660;28;20048;-72
2022/05/23 04:15:31;;;;;;;3.28;1.73;;;13.00;99.90;;;;;;5111373;28;20051;-73
2022/05/23 04:17:57;;;;;;;2.75;1.58;;;13.00;99.90;;;;;;5111964;28;20056;-73
2022/05/23 04:20:24;;;;;;;4.38;2.00;;;13.00;99.90;;;;;;5111590;28;20118;-72
2022/05/23 04:22:49;;;;;;;2.05;1.40;;;13.00;99.90;;;;;;5094763;28;20047;-73
2022/05/23 04:25:15;;;;;;;3.25;2.08;;;13.00;99.90;;;;;;5110498;28;20044;-73
2022/05/23 04:27:41;;;;;;;2.67;1.38;;;13.00;99.90;;;;;;5111738;28;20043;-73
2022/05/23 04:30:09;;;;;;;3.58;2.08;;;13.10;99.90;;;;;;5111119;28;20050;-73
2022/05/23 04:35:20;;;;;;;2.97;1.50;;;13.00;99.90;;;;;;5111975;28;20163;-73
2022/05/23 04:37:49;;;;;;;2.50;1.70;;;13.10;99.90;;;;;;5104359;28;20055;-73
2022/05/23 04:40:23;;;;;;;4.05;2.00;;;13.10;99.90;;;;;;5102602;28;20126;-73
2022/05/23 04:42:50;;;;;;;2.88;1.60;;;13.10;99.90;;;;;;5110914;28;20157;-72
2022/05/23 04:45:15;;;;;;;;;;;13.20;99.90;;;;;;5111199;28;20089;-72
2022/05/23 04:50:26;;;;;;;3.15;1.98;;;13.20;99.90;;;;;;5075994;28;20134;-72
2022/05/23 04:52:53;;;;;;;5.07;2.38;;;13.20;99.90;;;;;;5103243;28;20113;-72
2022/05/23 04:55:19;;;;;;;;;;;13.30;99.90;;;;;;5111236;28;20131;-72
2022/05/23 04:57:45;;;;;;;4.18;1.80;;;13.30;99.90;;;;;;5093658;28;19950;-72
2022/05/23 05:00:14;;;;;;;3.55;1.90;;;13.40;99.90;;;;;;5093661;28;20411;-73
2022/05/23 05:02:40;;;;;;;4.20;1.90;;;13.40;99.90;;;;;;5112599;28;20044;-73
2022/05/23 05:05:07;;;;;;;3.40;1.80;;;13.50;99.90;;;;;;5111487;28;20053;-72
2022/05/23 05:07:33;;;;;;;4.68;2.42;;;13.60;99.90;;;;;;5111338;28;20142;-73
2022/05/23 05:09:59;;;;;;;3.28;2.03;;;13.60;99.90;;;;;;5111627;28;20112;-72
2022/05/23 05:12:24;;;;;;;4.60;2.28;;;13.70;99.90;;;;;;5101335;28;20048;-72
2022/05/23 05:14:50;;;;;;;6.32;2.60;;;13.80;99.90;;;;;;5072995;28;20480;-72
2022/05/23 05:17:16;;;;;;;7.28;2.95;;;13.90;99.90;;;;;;5093808;28;20099;-72
2022/05/23 05:19:42;;;;;;;4.10;2.40;;;13.90;99.90;;;;;;5090247;28;20130;-72
2022/05/23 05:22:08;;;;;;;2.38;1.90;;;14.00;99.90;;;;;;5095708;28;20050;-73
2022/05/23 05:24:33;;;;;;;5.90;2.83;;;14.00;99.90;;;;;;5110095;28;20051;-72
2022/05/23 05:27:00;;;;;;;6.63;2.65;;;14.00;99.90;;;;;;5093748;28;20040;-71
2022/05/23 05:29:27;;;;;;;4.10;2.38;;;14.10;99.90;;;;;;5095849;28;20118;-72
2022/05/23 05:31:59;;;;;;;3.60;2.10;;;14.10;99.90;;;;;;5100530;28;20062;-72
2022/05/23 05:35:12;;;;;;;5.55;2.45;;;14.10;99.90;;;;;;5105955;28;20075;-72
2022/05/23 05:37:45;;;;;;;3.33;2.08;;;14.20;99.90;;;;;;5076999;28;20529;-73
2022/05/23 05:40:14;;;;;;;3.13;2.05;;;14.30;99.90;;;;;;5093478;28;20044;-72
2022/05/23 05:42:44;;;;;;;4.47;2.00;;;14.30;99.90;;;;;;5103335;28;20056;-73
2022/05/23 05:45:17;;;;;;;3.47;1.98;;;14.40;99.90;;;;;;5100491;28;20047;-72
2022/05/23 05:47:47;;;;;;;3.05;1.80;;;14.50;99.90;;;;;;5072657;28;20070;-72
2022/05/23 05:50:23;;;;;;;3.72;1.70;;;14.50;99.90;;;;;;5087989;28;20394;-72
2022/05/23 05:52:51;;;;;;;5.22;2.40;;;14.50;99.90;;;;;;5072393;28;20055;-73
2022/05/23 05:55:17;;;;;;;2.78;1.83;;;14.50;99.90;;;;;;5096249;28;20043;-73
2022/05/23 05:57:43;;;;;;;;;;;14.60;99.90;;;;;;5103201;28;20423;-72
2022/05/23 06:00:09;;;;;;;3.63;2.30;;;14.60;99.90;;;;;;5106879;28;20008;-72
2022/05/23 06:02:34;;;;;;;;;;;14.70;99.90;;;;;;5086843;28;20123;-72
2022/05/23 06:05:00;;;;;;;3.17;2.08;;;14.90;99.90;;;;;;5090362;28;20010;-72
2022/05/23 06:13:03;;;;;;;3.65;1.90;;;15.50;99.90;;;;;;5097639;28;20181;-73
2022/05/23 06:15:29;;;;;;;;;;;15.60;99.90;;;;;;5094973;28;20403;-72
2022/05/23 06:17:55;;;;;;;4.18;2.35;;;15.50;99.90;;;;;;5101442;28;20259;-73
2022/05/23 06:20:23;;;;;;;3.08;1.90;;;15.60;99.90;;;;;;5105282;28;20054;-73
2022/05/23 06:22:50;;;;;;;4.55;2.03;;;15.90;99.90;;;;;;5108695;28;20077;-71
2022/05/23 06:25:16;;;;;;;4.70;2.83;;;16.00;99.90;;;;;;5109340;28;20054;-71
2022/05/23 06:27:43;;;;;;;3.35;2.30;;;16.10;99.90;;;;;;5108713;28;20039;-72
2022/05/23 06:30:11;;;;;;;3.97;2.70;;;16.00;99.90;;;;;;5080013;28;20039;-72
2022/05/23 06:32:37;;;;;;;4.20;2.53;;;16.00;99.90;;;;;;5099570;28;20490;-72
2022/05/23 06:35:07;;;;;;;;;;;16.00;99.90;;;;;;5088713;28;20394;-73
2022/05/23 06:37:35;;;;;;;3.58;1.98;;;16.00;99.90;;;;;;5073258;28;19934;-71
2022/05/23 06:40:03;;;;;;;2.50;1.60;;;16.20;99.90;;;;;;5090043;28;20495;-71
2022/05/23 06:42:29;;;;;;;1.98;1.40;;;16.40;99.90;;;;;;5102752;28;20059;-71
2022/05/23 06:44:55;;;;;;;2.08;1.40;;;16.50;99.90;;;;;;5090457;28;20398;-72
2022/05/23 06:47:21;;;;;;;3.13;1.88;;;16.60;99.90;;;;;;5107033;28;20038;-72
2022/05/23 06:49:47;;;;;;;2.72;1.90;;;16.70;99.90;;;;;;5099523;28;20047;-72
2022/05/23 06:52:15;;;;;;;4.00;2.00;;;16.70;99.90;;;;;;5101600;28;20052;-72
2022/05/23 06:54:41;;;;;;;2.95;1.58;;;16.70;99.90;;;;;;5107323;28;20059;-72
2022/05/23 06:57:07;;;;;;;2.85;1.70;;;16.80;99.90;;;;;;5105396;28;20045;-72
2022/05/23 06:59:33;;;;;;;4.25;2.38;;;16.90;99.90;;;;;;5112563;28;20123;-72
2022/05/23 07:01:59;;;;;;;;;;;16.90;99.90;;;;;;5101898;28;20062;-72
2022/05/23 07:04:25;;;;;;;3.75;1.80;;;17.00;99.90;;;;;;5103640;28;20465;-72
2022/05/23 07:12:28;;;;;;;3.05;1.63;;;17.20;99.90;;;;;;5104887;28;20466;-72
2022/05/23 07:14:57;;;;;;;2.65;1.73;;;17.20;99.90;;;;;;5077671;28;20434;-72
2022/05/23 07:17:23;;;;;;;3.42;1.70;;;17.30;99.90;;;;;;5098816;28;20538;-72
2022/05/23 07:19:49;;;;;;;4.40;2.03;;;17.50;99.90;;;;;;5098288;28;20090;-78
2022/05/23 07:22:15;;;;;;;3.53;2.22;;;17.60;99.90;;;;;;5108573;28;20071;-78
2022/05/23 07:24:41;;;;;;;5.03;2.50;;;17.80;99.90;;;;;;5103043;28;20050;-79
2022/05/23 07:27:07;;;;;;;4.78;2.45;;;18.00;99.90;;;;;;5088633;28;20032;-78
2022/05/23 07:29:33;;;;;;;3.08;2.00;;;18.20;99.90;;;;;;5104118;27;20040;-78
2022/05/23 07:31:58;;;;;;;4.15;2.22;;;18.30;99.90;;;;;;5104686;28;20463;-71
2022/05/23 07:34:24;;;;;;;;;;;18.50;99.90;;;;;;5103755;28;20050;-72
2022/05/23 07:36:50;;;;;;;4.50;2.42;;;18.60;99.90;;;;;;5096806;28;19916;-77
2022/05/23 07:39:16;;;;;;;3.67;2.00;;;18.80;99.90;;;;;;5098573;28;20047;-78
2022/05/23 07:41:43;;;;;;;4.03;2.20;;;19.00;99.90;;;;;;5105466;28;20559;-78
2022/05/23 07:44:11;;;;;;;3.75;2.17;;;19.10;99.90;;;;;;5106551;28;20047;-78
2022/05/23 07:46:37;;;;;;;4.00;2.08;;;19.10;99.90;;;;;;5087025;28;20050;-78
2022/05/23 07:49:04;;;;;;;5.05;2.20;;;19.20;99.90;;;;;;5088784;28;20047;-77
2022/05/23 07:51:32;;;;;;;4.70;2.33;;;19.30;99.90;;;;;;5105780;28;20035;-78
2022/05/23 08:02:14;;;;;;;2.85;2.50;;;19.40;99.90;;;;;;5089037;28;20052;-78
2022/05/23 08:04:39;;;;;;;3.70;2.30;;;19.30;99.90;;;;;;5099328;28;20040;-72
2022/05/23 08:07:07;;;;;;;;;;;19.20;99.90;;;;;;5097708;28;20794;-78
2022/05/23 08:09:33;;;;;;;3.58;2.45;;;19.20;99.90;;;;;;5097966;28;19920;-79
2022/05/23 08:11:59;;;;;;;;;;;19.20;99.90;;;;;;5099806;28;20454;-79
2022/05/23 08:14:25;;;;;;;4.20;2.50;;;19.20;99.90;;;;;;5102131;28;19926;-78
2022/05/23 08:16:51;;;;;;;;;;;19.20;99.90;;;;;;5088638;28;20043;-79
2022/05/23 08:19:17;;;;;;;4.22;2.20;;;19.20;99.90;;;;;;5109281;28;20262;-77
2022/05/23 08:21:46;;;;;;;;;;;19.20;99.90;;;;;;5111153;28;20194;-78
2022/05/23 08:24:11;;;;;;;3.53;1.90;;;19.30;99.90;;;;;;5110457;28;19929;-78
2022/05/23 08:26:37;;;;;;;;;;;19.30;99.90;;;;;;5110571;28;20118;-78
2022/05/23 08:29:03;;;;;;;3.88;2.30;;;19.40;99.90;;;;;;5093743;28;19931;-78
2022/05/23 08:31:28;;;;;;;;;;;19.50;99.90;;;;;;5112948;28;20104;-78
2022/05/23 08:33:54;;;;;;;3.60;1.90;;;19.60;99.90;;;;;;5090685;28;20363;-77
2022/05/23 08:36:19;;;;;;;;;;;20.00;99.90;;;;;;5113151;28;20036;-78
2022/05/23 08:38:45;;;;;;;2.55;1.80;;;20.30;99.90;;;;;;5094371;28;19926;-78
2022/05/23 08:41:11;;;;;;;;;;;20.60;99.90;;;;;;5094878;28;20040;-78
2022/05/23 08:43:43;;;;;;;5.18;2.70;;;20.90;99.90;;;;;;5111065;28;19922;-78
2022/05/23 08:46:15;;;;;;;2.53;1.70;;;21.20;99.90;;;;;;5111894;28;20046;-78
2022/05/23 08:48:57;;;;;;;3.70;2.25;;;21.40;99.90;;;;;;5111638;28;20098;-78
2022/05/23 08:51:41;;;;;;;3.45;2.05;;;21.50;99.90;;;;;;5112807;28;20087;-78
2022/05/23 08:54:21;;;;;;;4.47;1.80;;;21.50;99.90;;;;;;5111400;28;20040;-78
2022/05/23 08:56:58;;;;;;;2.88;1.50;;;21.50;99.90;;;;;;5110392;28;20039;-78
2022/05/23 08:59:42;;;;;;;3.80;1.90;;;21.40;99.90;;;;;;5109747;28;20047;-77
2022/05/23 09:02:19;;;;;;;2.97;1.83;;;21.20;99.90;;;;;;5111354;28;20058;-78
2022/05/23 09:04:58;;;;;;;3.45;1.80;;;21.00;99.90;;;;;;5111246;28;20048;-77
2022/05/23 09:07:31;;;;;;;3.67;2.10;;;21.00;99.90;;;;;;5112317;28;20100;-77
2022/05/23 09:10:01;;;;;;;4.50;2.40;;;21.10;99.90;;;;;;5110687;28;20474;-77
2022/05/23 09:12:27;;;;;;;2.67;1.80;;;21.40;99.90;;;;;;5110994;28;20043;-77
2022/05/23 09:14:53;;;;;;;4.95;2.60;;;21.80;99.90;;;;;;5094180;28;20051;-77
2022/05/23 09:17:23;;;;;;;3.22;2.03;;;22.20;99.90;;;;;;5111134;28;20100;-77
2022/05/23 09:20:00;;;;;;;4.95;2.85;;;22.40;99.90;;;;;;5110656;28;20122;-77
2022/05/23 09:22:43;;;;;;;3.40;2.05;;;22.60;99.90;;;;;;5111055;28;20044;-77
2022/05/23 09:25:09;;;;;;;3.15;1.90;;;22.80;99.90;;;;;;5110580;28;20097;-77
2022/05/23 09:27:41;;;;;;;5.13;2.92;;;23.20;99.90;;;;;;5110590;28;20078;-77
2022/05/23 09:30:13;;;;;;;2.60;1.80;;;23.20;99.20;;;;;;5110598;28;20054;-71
2022/05/23 09:32:57;;;;;;;3.30;1.70;;;23.50;99.80;;;;;;5110399;28;20494;-71
2022/05/23 09:35:54;;;;;;;3.50;1.83;;;23.80;99.70;;;;;;5110842;28;20051;-73
2022/05/23 09:38:20;;;;;;;2.90;2.00;;;24.10;97.10;;;;;;5109834;28;20062;-71
2022/05/23 09:40:46;;;;;;;4.90;1.50;;;24.20;96.70;;;;;;5111997;28;20035;-71
2022/05/23 09:49:18;;;;;;;4.07;1.73;;;24.70;95.30;;;;;;5110363;28;20050;-72
2022/05/23 09:51:54;;;;;;;4.00;1.80;;;24.80;94.60;;;;;;5093499;28;20043;-72
2022/05/23 09:54:28;;;;;;;3.95;1.70;;;24.50;94.60;;;;;;5110330;28;20051;-72
2022/05/23 09:56:56;;;;;;;3.63;1.48;;;24.30;95.20;;;;;;5110580;28;20043;-72
2022/05/23 09:59:34;;;;;;;3.63;1.75;;;24.00;95.00;;;;;;5093683;28;20056;-71
2022/05/23 10:02:20;;;;;;;3.00;1.60;;;24.00;95.30;;;;;;5110224;28;20035;-71
2022/05/23 10:04:49;;;;;;;2.90;1.63;;;23.80;94.30;;;;;;5110051;28;20118;-72
2022/05/23 10:07:37;;;;;;;3.05;1.58;;;23.90;94.90;;;;;;5109912;28;20055;-72
2022/05/23 10:10:22;;;;;;;2.90;1.42;;;23.90;94.50;;;;;;5093369;28;20506;-72
2022/05/23 10:12:48;;;;;;;3.25;1.42;;;23.80;94.90;;;;;;5093258;28;20096;-72
2022/05/23 10:15:20;;;;;;;2.22;1.20;;;23.80;95.30;;;;;;5093389;28;20192;-72
2022/05/23 10:18:00;;;;;;;1.42;1.10;;;23.90;95.70;;;;;;5093102;28;20072;-72
2022/05/23 10:20:29;;;;;;;3.65;1.40;;;23.90;95.30;;;;;;5111413;28;20047;-72
2022/05/23 10:23:02;;;;;;;3.28;1.42;;;23.80;94.40;;;;;;5111651;28;20047;-72
2022/05/23 10:25:35;;;;;;;2.25;1.40;;;23.70;94.20;;;;;;5113916;28;20048;-73
2022/05/23 10:28:09;;;;;;;2.83;1.48;;;23.70;94.40;;;;;;5115318;28;20052;-72
2022/05/23 10:30:36;;;;;;;2.45;1.20;;;23.60;94.60;;;;;;5114019;28;20044;-71
2022/05/23 10:33:10;;;;;;;2.80;1.35;;;23.80;94.90;;;;;;5114069;28;20051;-72
2022/05/23 10:35:44;;;;;;;2.33;1.20;;;23.80;94.70;;;;;;5113776;28;20140;-72
2022/05/23 10:44:24;;;;;;;1.98;1.15;;;24.80;95.00;;;;;;5113639;28;20050;-72
2022/05/23 10:47:02;;;;;;;3.22;1.70;;;24.70;94.20;;;;;;5113649;28;20111;-72
2022/05/23 10:50:06;;;;;;;2.92;1.33;;;24.60;94.10;;;;;;5096663;28;20050;-72
2022/05/23 10:53:05;;;;;;;2.17;1.48;;;24.90;94.60;;;;;;5113479;28;20070;-72
2022/05/23 10:55:55;;;;;;;2.83;1.45;;;25.10;93.80;;;;;;5096917;28;20048;-72
2022/05/23 10:58:34;;;;;;;3.25;1.15;;;25.20;93.50;;;;;;5113353;28;20043;-72
2022/05/23 11:01:15;;;;;;;3.55;1.50;;;25.60;93.20;;;;;;5113477;28;20043;-71
2022/05/23 11:04:14;;;;;;;1.67;0.95;;;25.90;93.10;;;;;;5113331;28;20088;-71
2022/05/23 11:07:00;;;;;;;2.75;1.13;;;26.20;92.20;;;;;;5113283;28;20119;-71
2022/05/23 11:09:57;;;;;;;3.03;1.30;;;26.20;91.90;;;;;;5092764;28;20435;-71
2022/05/23 11:12:23;;;;;;;3.47;1.23;;;26.00;91.40;;;;;;5113485;28;20083;-72
2022/05/23 11:15:21;;;;;;;2.10;1.42;;;25.70;90.70;;;;;;5113090;28;20470;-71
2022/05/23 11:18:08;;;;;;;2.75;1.20;;;25.60;91.00;;;;;;5112965;28;20169;-71
2022/05/23 11:20:37;;;;;;;2.88;1.40;;;25.70;91.30;;;;;;5112913;28;20126;-71
2022/05/23 11:23:35;;;;;;;1.83;1.05;;;25.80;90.90;;;;;;5113317;28;20514;-71
2022/05/23 11:26:20;;;;;;;5.72;1.33;;;26.20;90.70;;;;;;5112978;28;20048;-71
2022/05/23 11:34:48;;;;;;;5.60;1.65;;;27.00;89.90;;;;;;5112461;28;20058;-71
2022/05/23 11:40:01;;;;;;;2.00;1.00;;;27.30;87.00;;;;;;5113128;28;20051;-71
2022/05/23 11:42:29;;;;;;;2.33;1.20;;;27.60;88.50;;;;;;5112930;28;20759;-72
2022/05/23 11:45:57;;;;;;;3.67;1.42;;;27.80;87.70;;;;;;5112540;28;20035;-71
2022/05/23 11:47:58;;;;;;;2.05;0.95;;;27.60;86.20;;;;;;5113684;28;20043;-72
2022/05/23 11:50:34;;;;;;;2.75;1.20;;;27.70;87.30;;;;;;5112376;28;20040;-72
2022/05/23 11:53:17;;;;;;;1.60;1.05;;;27.40;86.00;;;;;;5112517;28;20082;-72
2022/05/23 11:55:53;;;;;;;1.35;0.90;;;27.10;85.20;;;;;;5112659;28;20422;-72
2022/05/23 11:58:46;;;;;;;2.35;1.02;;;26.90;86.10;;;;;;5112456;28;20047;-71
2022/05/23 12:01:22;;;;;;;1.33;0.88;;;26.70;83.70;;;;;;5110670;28;20051;-72
2022/05/23 12:03:51;;;;;;;2.60;0.95;;;26.60;84.00;;;;;;5112450;28;20119;-72
2022/05/23 12:06:19;;;;;;;1.85;1.00;;;26.90;84.40;;;;;;5112212;28;20044;-72
2022/05/23 12:09:04;;;;;;;1.67;0.90;;;26.70;83.50;;;;;;5112228;28;20047;-71
2022/05/23 12:11:32;;;;;;;1.60;0.90;;;26.60;83.40;;;;;;5112076;28;20483;-71
2022/05/23 12:14:33;;;;;;;1.92;1.05;;;26.30;82.80;;;;;;5112021;28;20051;-72
2022/05/23 12:16:58;;;;;;;2.35;0.75;;;26.20;84.30;;;;;;5090187;28;20500;-72
2022/05/23 12:19:26;;;;;;;2.33;1.00;;;26.10;85.00;;;;;;5094828;28;20436;-72
2022/05/23 12:21:52;;;;;;;2.10;1.00;;;26.10;85.20;;;;;;5111882;28;20058;-71
2022/05/23 12:24:23;;;;;;;3.15;1.10;;;26.10;84.20;;;;;;5112140;28;20052;-71
2022/05/23 12:26:55;;;;;;;3.15;1.17;;;26.30;85.00;;;;;;5111710;28;20055;-71
2022/05/23 12:29:23;;;;;;;2.00;1.00;;;26.20;83.60;;;;;;5113297;28;20097;-71
2022/05/23 12:32:11;;;;;;;1.08;0.80;;;26.00;84.70;;;;;;5111549;28;20040;-71
2022/05/23 12:34:46;;;;;;;1.38;1.00;;;25.80;85.70;;;;;;5111913;28;20371;-71
2022/05/23 12:37:26;;;;;;;1.30;0.88;;;25.80;85.70;;;;;;5112878;28;20049;-71
2022/05/23 12:40:38;;;;;;;0.88;0.80;;;25.60;84.30;;;;;;5094470;28;20114;-71
2022/05/23 12:43:09;;;;;;;2.42;1.10;;;25.60;86.30;;;;;;5072720;28;20127;-72
2022/05/23 12:46:09;;;;;;;2.47;1.10;;;25.40;86.50;;;;;;5072181;28;20040;-72
2022/05/23 12:49:05;;;;;;;2.50;1.10;;;25.30;86.70;;;;;;5100502;28;20076;-72
2022/05/23 12:52:05;;;;;;;1.48;0.90;;;25.10;86.80;;;;;;5111394;28;20055;-72
2022/05/23 12:54:40;;;;;;;2.42;1.00;;;24.90;87.90;;;;;;5104287;28;20100;-77
2022/05/23 12:58:02;;;;;;;2.70;1.13;;;24.80;89.30;;;;;;5111180;28;20061;-78
2022/05/23 13:00:34;;;;;;;2.05;1.10;;;24.70;89.20;;;;;;5072769;28;20487;-77
2022/05/23 13:03:34;;;;;;;2.55;0.90;;;24.60;90.10;;;;;;5104716;28;20190;-78
2022/05/23 13:06:20;;;;;;;2.03;0.93;;;24.70;90.50;;;;;;5110973;28;20039;-77
2022/05/23 13:09:27;;;;;;;1.33;0.75;;;24.70;89.60;;;;;;5094082;28;20044;-77
2022/05/23 13:11:57;;;;;;;2.20;1.10;;;24.80;90.10;;;;;;5072692;28;20380;-78
2022/05/23 13:14:23;;;;;;;1.92;1.10;;;24.70;90.30;;;;;;5103408;28;20120;-78
2022/05/23 13:16:55;;;;;;;2.28;1.17;;;24.70;90.50;;;;;;5110871;28;20059;-78
2022/05/23 13:22:24;;;;;;;1.95;1.20;;;24.50;90.50;;;;;;5072573;28;20056;-77
2022/05/23 13:24:53;;;;;;;2.45;1.00;;;24.40;91.00;;;;;;5102104;28;20052;-77
2022/05/23 13:27:28;;;;;;;1.30;0.88;;;24.30;91.00;;;;;;5110571;28;20522;-77
2022/05/23 13:29:57;;;;;;;1.30;0.93;;;24.30;91.60;;;;;;5110672;28;20047;-77
2022/05/23 13:32:23;;;;;;;1.35;0.82;;;24.30;91.40;;;;;;5110668;28;20491;-77
2022/05/23 13:34:51;;;;;;;1.60;0.80;;;24.20;92.00;;;;;;5110753;28;20102;-77
2022/05/23 13:37:43;;;;;;;1.80;1.02;;;24.20;92.80;;;;;;5110951;28;20043;-77
2022/05/23 13:40:10;;;;;;;1.75;1.10;;;24.20;92.70;;;;;;5108340;28;20063;-77
2022/05/23 13:42:36;;;;;;;1.25;0.80;;;24.10;92.70;;;;;;5110478;28;20043;-77
2022/05/23 13:45:13;;;;;;;1.00;0.65;;;24.10;92.90;;;;;;5110121;28;20514;-77
2022/05/23 13:47:50;;;;;;;1.23;0.73;;;24.10;93.20;;;;;;5110573;28;20112;-77
2022/05/23 13:50:24;;;;;;;1.58;0.75;;;24.00;92.90;;;;;;5110179;28;20498;-77
2022/05/23 13:52:57;;;;;;;1.27;0.70;;;24.10;93.40;;;;;;5110509;28;20035;-78
2022/05/23 13:55:34;;;;;;;3.60;0.70;;;24.10;93.30;;;;;;5110644;28;20054;-77
2022/05/23 13:58:07;;;;;;;2.03;0.88;;;24.10;93.00;;;;;;5114340;28;20440;-78
2022/05/23 14:00:36;;;;;;;3.20;1.00;;;24.00;93.30;;;;;;5114549;28;20127;-77
2022/05/23 14:03:25;;;;;;;0.85;0.70;;;23.80;94.70;;;;;;5115937;27;20055;-77
2022/05/23 14:05:53;;;;;;;1.77;0.70;;;23.70;98.10;;;;;;5114256;28;20051;-78
2022/05/23 14:08:36;;;;;;;0.88;0.60;;;23.60;98.50;;;;;;5114377;28;20082;-78
2022/05/23 14:11:38;;;;;;;0.82;0.60;;;23.60;98.30;;;;;;5114688;28;20046;-78
2022/05/23 14:14:34;;;;;;;1.08;0.63;;;23.70;99.90;;;;;;5115789;28;20039;-79
2022/05/23 14:17:21;;;;;;;2.20;0.70;;;23.90;99.90;;;;;;5097527;28;20395;-78